createdAt,value
2022-10-23T00:01:29.067Z,99975.19
2022-10-23T00:04:02.025Z,99987.81
2022-10-23T00:06:30.348Z,99992.75
2022-10-23T00:08:58.123Z,99988.06
2022-10-23T00:11:28.539Z,99991.72
2022-10-23T00:13:58.377Z,99989.91
2022-10-23T00:16:26.801Z,100000.69
2022-10-23T00:18:54.388Z,100011.72
2022-10-23T00:21:22.033Z,100006.84
2022-10-23T00:23:51.258Z,100012.28
2022-10-23T00:26:18.838Z,100018.66
2022-10-23T00:28:49.275Z,100009.50
2022-10-23T00:31:17.904Z,100019.00
2022-10-23T00:33:45.665Z,100005.53
2022-10-23T00:36:14.842Z,100011.13
2022-10-23T00:38:44.334Z,100022.12
2022-10-23T00:41:38.036Z,100025.00
2022-10-23T00:44:09.246Z,100032.16
2022-10-23T00:46:38.075Z,100041.53
2022-10-23T00:49:07.511Z,100029.00
2022-10-23T00:51:45.310Z,100043.44
2022-10-23T00:54:29.681Z,100042.94
2022-10-23T00:56:59.597Z,100050.75
2022-10-23T00:59:27.650Z,100057.75
2022-10-23T01:01:55.463Z,100061.91
2022-10-23T01:04:24.195Z,100068.34
2022-10-23T01:07:22.265Z,100064.72
2022-10-23T01:10:04.111Z,100075.25
2022-10-23T01:12:45.802Z,100076.16
2022-10-23T01:15:22.256Z,100071.03
2022-10-23T01:18:04.523Z,100080.13
2022-10-23T01:20:40.005Z,100081.37
2022-10-23T01:23:11.544Z,100081.69
2022-10-23T01:25:58.309Z,100081.81
2022-10-23T01:28:30.812Z,100084.37
2022-10-23T01:30:59.973Z,100075.81
2022-10-23T01:33:39.544Z,100077.34
2022-10-23T01:36:12.795Z,100071.31
2022-10-23T01:38:45.963Z,100073.34
2022-10-23T01:41:18.357Z,100066.22
2022-10-23T01:43:53.678Z,100064.34
2022-10-23T01:46:21.203Z,100070.47
2022-10-23T01:48:52.948Z,100072.44
2022-10-23T01:51:22.409Z,100066.75
2022-10-23T01:53:51.245Z,100071.72
2022-10-23T01:56:31.922Z,100068.66
2022-10-23T01:59:03.958Z,100063.25
2022-10-23T02:01:33.309Z,100062.56
2022-10-23T02:04:03.684Z,100070.34
2022-10-23T02:06:31.800Z,100071.91
2022-10-23T02:08:59.279Z,100061.56
2022-10-23T02:11:27.630Z,100071.37
2022-10-23T02:14:24.706Z,100059.72
2022-10-23T02:16:59.215Z,100065.72
2022-10-23T02:19:50.941Z,100069.97
2022-10-23T02:22:37.823Z,100072.09
2022-10-23T02:25:11.627Z,100072.62
2022-10-23T02:27:48.074Z,100063.59
2022-10-23T02:30:18.090Z,100069.62
2022-10-23T02:32:50.317Z,100067.41
2022-10-23T02:35:19.904Z,100071.66
2022-10-23T02:37:58.927Z,100073.06
2022-10-23T02:40:32.284Z,100080.16
2022-10-23T02:43:14.532Z,100080.87
2022-10-23T02:46:02.767Z,100092.06
2022-10-23T02:48:40.112Z,100092.59
2022-10-23T02:51:15.333Z,100101.69
2022-10-23T02:53:54.594Z,100095.72
2022-10-23T02:56:36.654Z,100098.56
2022-10-23T02:59:15.667Z,100107.31
2022-10-23T03:01:52.115Z,100114.13
2022-10-23T03:04:24.172Z,100106.88
2022-10-23T03:06:51.848Z,100108.31
2022-10-23T03:09:19.337Z,100113.28
2022-10-23T03:11:47.021Z,100113.78
2022-10-23T03:14:14.635Z,100115.94
2022-10-23T03:16:42.049Z,100116.09
2022-10-23T03:21:41.220Z,100118.56
2022-10-23T03:24:09.186Z,100119.00
2022-10-23T03:26:37.893Z,100127.03
2022-10-23T03:29:05.587Z,100126.78
2022-10-23T03:31:36.305Z,100136.16
2022-10-23T03:34:09.986Z,100135.06
2022-10-23T03:36:38.500Z,100125.28
2022-10-23T03:39:06.370Z,100124.81
2022-10-23T03:41:33.829Z,100122.28
2022-10-23T03:44:01.351Z,100123.28
2022-10-23T03:46:29.144Z,100123.16
2022-10-23T03:48:59.645Z,100123.41
2022-10-23T03:51:27.150Z,100129.78
2022-10-23T03:53:55.006Z,100133.75
2022-10-23T03:56:22.752Z,100129.63
2022-10-23T03:58:50.182Z,100127.41
2022-10-23T04:01:17.967Z,100131.03
2022-10-23T04:03:45.748Z,100135.59
2022-10-23T04:06:13.274Z,100131.47
2022-10-23T04:08:43.272Z,100134.75
2022-10-23T04:11:11.942Z,100138.31
2022-10-23T04:13:40.391Z,100128.19
2022-10-23T04:16:08.026Z,100123.41
2022-10-23T04:18:35.740Z,100120.22
2022-10-23T04:21:03.670Z,100120.78
2022-10-23T04:23:31.092Z,100117.69
2022-10-23T04:25:58.960Z,100117.81
2022-10-23T04:28:26.847Z,100117.81
2022-10-23T04:30:54.342Z,100117.50
2022-10-23T04:33:22.162Z,100118.81
2022-10-23T04:35:49.826Z,100117.31
2022-10-23T04:38:17.423Z,100118.31
2022-10-23T04:40:45.152Z,100122.97
2022-10-23T04:43:12.790Z,100119.25
2022-10-23T04:45:40.422Z,100112.44
2022-10-23T04:48:09.473Z,100117.56
2022-10-23T04:50:38.607Z,100123.44
2022-10-23T04:53:06.120Z,100127.53
2022-10-23T04:55:34.424Z,100129.78
2022-10-23T04:58:04.670Z,100130.62
2022-10-23T05:00:32.726Z,100132.09
2022-10-23T05:03:01.402Z,100127.69
2022-10-23T05:05:30.311Z,100142.47
2022-10-23T05:07:57.861Z,100129.13
2022-10-23T05:10:26.459Z,100132.53
2022-10-23T05:12:54.490Z,100136.03
2022-10-23T05:15:21.965Z,100139.19
2022-10-23T05:17:54.187Z,100138.84
2022-10-23T05:20:23.618Z,100132.47
2022-10-23T05:22:52.624Z,100137.09
2022-10-23T05:25:20.861Z,100139.53
2022-10-23T05:27:48.645Z,100151.94
2022-10-23T05:30:16.718Z,100147.03
2022-10-23T05:32:44.721Z,100146.19
2022-10-23T05:35:16.462Z,100140.19
2022-10-23T05:37:48.283Z,100140.47
2022-10-23T05:40:18.028Z,100138.87
2022-10-23T05:42:48.658Z,100146.63
2022-10-23T05:45:16.579Z,100158.19
2022-10-23T05:47:45.247Z,100153.41
2022-10-23T05:50:13.267Z,100151.34
2022-10-23T05:52:47.503Z,100154.38
2022-10-23T05:55:16.652Z,100156.72
2022-10-23T05:57:45.092Z,100159.59
2022-10-23T06:00:13.812Z,100158.13
2022-10-23T06:02:41.414Z,100159.84
2022-10-23T06:05:10.047Z,100166.53
2022-10-23T06:07:39.361Z,100173.72
2022-10-23T06:10:07.312Z,100169.66
2022-10-23T06:12:35.095Z,100172.81
2022-10-23T06:15:02.580Z,100170.94
2022-10-23T06:17:31.979Z,100159.16
2022-10-23T06:20:02.511Z,100171.97
2022-10-23T06:22:30.802Z,100173.94
2022-10-23T06:24:59.927Z,100170.34
2022-10-23T06:27:27.952Z,100170.25
2022-10-23T06:29:55.876Z,100172.91
2022-10-23T06:32:23.275Z,100189.41
2022-10-23T06:34:53.183Z,100198.47
2022-10-23T06:37:21.651Z,100207.53
2022-10-23T06:39:49.816Z,100204.53
2022-10-23T06:42:17.602Z,100207.97
2022-10-23T06:44:48.412Z,100216.28
2022-10-23T06:49:54.662Z,100215.38
2022-10-23T06:52:42.079Z,100212.59
2022-10-23T06:55:11.371Z,100215.94
2022-10-23T06:57:38.928Z,100214.50
2022-10-23T07:00:07.241Z,100212.16
2022-10-23T07:02:36.706Z,100219.84
2022-10-23T07:05:06.757Z,100222.00
2022-10-23T07:07:36.898Z,100219.59
2022-10-23T07:10:05.261Z,100223.87
2022-10-23T07:12:34.323Z,100220.75
2022-10-23T07:15:05.538Z,100225.22
2022-10-23T07:17:34.086Z,100218.38
2022-10-23T07:20:01.636Z,100221.38
2022-10-23T07:22:29.432Z,100225.34
2022-10-23T07:25:00.960Z,100222.06
2022-10-23T07:27:29.090Z,100221.25
2022-10-23T07:29:56.714Z,100235.03
2022-10-23T07:32:24.750Z,100226.78
2022-10-23T07:34:55.294Z,100226.66
2022-10-23T07:37:23.482Z,100223.53
2022-10-23T07:39:51.317Z,100213.56
2022-10-23T07:42:19.034Z,100213.84
2022-10-23T07:44:46.747Z,100210.59
2022-10-23T07:47:14.195Z,100214.69
2022-10-23T07:49:42.738Z,100223.81
2022-10-23T07:52:10.316Z,100221.47
2022-10-23T07:54:38.907Z,100222.66
2022-10-23T07:57:07.780Z,100217.97
2022-10-23T07:59:37.900Z,100208.44
2022-10-23T08:02:11.850Z,100214.19
2022-10-23T08:04:40.118Z,100212.50
2022-10-23T08:07:08.098Z,100211.31
2022-10-23T08:09:38.081Z,100200.97
2022-10-23T08:12:06.189Z,100196.41
2022-10-23T08:14:33.718Z,100202.25
2022-10-23T08:19:31.964Z,100208.44
2022-10-23T08:21:59.525Z,100201.47
2022-10-23T08:24:27.043Z,100203.19
2022-10-23T08:26:54.829Z,100202.97
2022-10-23T08:29:23.123Z,100190.13
2022-10-23T08:31:53.727Z,100193.97
2022-10-23T08:34:22.306Z,100205.41
2022-10-23T08:36:50.533Z,100208.97
2022-10-23T08:39:18.387Z,100207.69
2022-10-23T08:41:51.581Z,100210.16
2022-10-23T08:44:22.783Z,100201.31
2022-10-23T08:47:02.936Z,100200.63
2022-10-23T08:49:49.278Z,100187.84
2022-10-23T08:52:30.376Z,100185.72
2022-10-23T08:55:13.026Z,100190.06
2022-10-23T08:57:47.432Z,100186.22
2022-10-23T09:00:16.701Z,100190.50
2022-10-23T09:02:50.842Z,100190.09
2022-10-23T09:05:19.771Z,100189.69
2022-10-23T09:08:12.907Z,100195.16
2022-10-23T09:11:30.674Z,100192.81
2022-10-23T09:14:26.756Z,100191.41
2022-10-23T09:17:18.947Z,100195.50
2022-10-23T09:19:46.802Z,100194.34
2022-10-23T09:22:14.388Z,100202.19
2022-10-23T09:24:44.880Z,100210.03
2022-10-23T09:27:17.045Z,100208.19
2022-10-23T09:29:53.770Z,100215.22
2022-10-23T09:32:33.621Z,100207.84
2022-10-23T09:35:01.149Z,100215.66
2022-10-23T09:37:30.909Z,100213.69
2022-10-23T09:40:19.200Z,100217.00
2022-10-23T09:42:55.838Z,100207.97
2022-10-23T09:45:26.047Z,100211.72
2022-10-23T09:48:19.451Z,100215.84
2022-10-23T09:51:01.323Z,100210.19
2022-10-23T09:53:40.594Z,100208.69
2022-10-23T09:56:25.604Z,100216.53
2022-10-23T09:58:57.064Z,100206.31
2022-10-23T10:01:30.703Z,100206.47
2022-10-23T10:04:00.466Z,100209.78
2022-10-23T10:06:30.505Z,100205.97
2022-10-23T10:09:05.250Z,100209.59
2022-10-23T10:11:39.228Z,100213.03
2022-10-23T10:14:12.513Z,100205.16
2022-10-23T10:16:58.466Z,100208.34
2022-10-23T10:19:28.868Z,100204.00
2022-10-23T10:22:09.609Z,100204.97
2022-10-23T10:25:23.234Z,100200.31
2022-10-23T10:28:13.716Z,100187.94
2022-10-23T10:30:52.013Z,100196.41
2022-10-23T10:33:30.810Z,100185.94
2022-10-23T10:36:04.802Z,100188.69
2022-10-23T10:38:50.526Z,100184.81
2022-10-23T10:41:56.045Z,100183.97
2022-10-23T10:44:32.691Z,100178.47
2022-10-23T10:47:29.772Z,100182.31
2022-10-23T10:50:19.647Z,100172.06
2022-10-23T10:53:02.637Z,100148.91
2022-10-23T10:55:34.352Z,100157.75
2022-10-23T10:58:11.362Z,100158.28
2022-10-23T11:00:39.134Z,100148.44
2022-10-23T11:03:44.937Z,100140.56
2022-10-23T11:06:16.172Z,100137.81
2022-10-23T11:08:57.153Z,100128.66
2022-10-23T11:11:35.341Z,100129.00
2022-10-23T11:14:02.962Z,100125.16
2022-10-23T11:16:40.074Z,100130.09
2022-10-23T11:19:16.527Z,100132.66
2022-10-23T11:22:05.286Z,100125.41
2022-10-23T11:24:58.429Z,100126.59
2022-10-23T11:27:32.247Z,100131.38
2022-10-23T11:30:13.129Z,100136.38
2022-10-23T11:32:59.695Z,100137.91
2022-10-23T11:35:45.406Z,100142.50
2022-10-23T11:38:13.003Z,100134.59
2022-10-23T11:40:46.307Z,100136.81
2022-10-23T11:43:14.147Z,100134.81
2022-10-23T11:45:42.240Z,100134.88
2022-10-23T11:48:35.725Z,100132.25
2022-10-23T11:51:05.188Z,100126.47
2022-10-23T11:53:32.762Z,100114.34
2022-10-23T11:56:04.315Z,100111.34
2022-10-23T11:58:42.518Z,100115.03
2022-10-23T12:01:28.878Z,100110.84
2022-10-23T12:04:14.311Z,100101.81
2022-10-23T12:06:51.042Z,100101.78
2022-10-23T12:09:43.398Z,100090.44
2022-10-23T12:12:10.848Z,100089.81
2022-10-23T12:14:39.869Z,100087.56
2022-10-23T12:17:23.969Z,100080.47
2022-10-23T12:20:15.985Z,100095.31
2022-10-23T12:23:20.995Z,100089.50
2022-10-23T12:26:12.651Z,100082.47
2022-10-23T12:28:51.361Z,100076.88
2022-10-23T12:31:48.808Z,100067.22
2022-10-23T12:34:38.542Z,100070.59
2022-10-23T12:37:21.571Z,100069.06
2022-10-23T12:39:56.514Z,100068.91
2022-10-23T12:42:24.825Z,100049.91
2022-10-23T12:45:19.278Z,100053.97
2022-10-23T12:47:47.637Z,100052.62
2022-10-23T12:50:29.776Z,100048.81
2022-10-23T12:53:05.995Z,100052.75
2022-10-23T12:55:49.091Z,100050.87
2022-10-23T12:58:24.497Z,100043.94
2022-10-23T13:00:57.396Z,100044.28
2022-10-23T13:03:26.498Z,100049.38
2022-10-23T13:05:56.075Z,100046.50
2022-10-23T13:08:23.742Z,100043.59
2022-10-23T13:11:01.265Z,100037.81
2022-10-23T13:13:29.244Z,100033.22
2022-10-23T13:15:56.949Z,100030.53
2022-10-23T13:18:24.798Z,100032.91
2022-10-23T13:20:52.289Z,100020.69
2022-10-23T13:23:28.845Z,100034.78
2022-10-23T13:25:59.082Z,100020.50
2022-10-23T13:28:41.232Z,100024.56
2022-10-23T13:31:15.168Z,100023.78
2022-10-23T13:33:51.015Z,100008.12
2022-10-23T13:36:23.804Z,100009.06
2022-10-23T13:39:03.830Z,100006.41
2022-10-23T13:41:40.798Z,100013.34
2022-10-23T13:44:11.548Z,100018.19
2022-10-23T13:46:39.519Z,100006.16
2022-10-23T13:49:07.154Z,100014.69
2022-10-23T13:51:42.495Z,100004.06
2022-10-23T13:54:15.653Z,100007.00
2022-10-23T13:56:43.252Z,99995.94
2022-10-23T13:59:12.548Z,99997.94
2022-10-23T14:01:40.623Z,99992.22
2022-10-23T14:04:09.423Z,99982.50
2022-10-23T14:06:38.251Z,99990.31
2022-10-23T14:09:07.227Z,99996.13
2022-10-23T14:11:35.177Z,99995.09
2022-10-23T14:14:02.769Z,99987.78
2022-10-23T14:16:30.547Z,99984.69
2022-10-23T14:18:58.576Z,99980.69
2022-10-23T14:21:26.131Z,99981.94
2022-10-23T14:23:54.158Z,99984.19
2022-10-23T14:26:24.946Z,99985.91
2022-10-23T14:28:55.837Z,99982.41
2022-10-23T14:31:24.110Z,99983.81
2022-10-23T14:33:55.970Z,99977.53
2022-10-23T14:36:24.598Z,99974.91
2022-10-23T14:38:57.678Z,99968.75
2022-10-23T14:41:27.153Z,99961.44
2022-10-23T14:43:54.848Z,99958.22
2022-10-23T14:46:24.334Z,99958.56
2022-10-23T14:48:54.955Z,99955.00
2022-10-23T14:51:28.230Z,99951.44
2022-10-23T14:53:59.566Z,99947.13
2022-10-23T14:56:28.350Z,99949.25
2022-10-23T14:59:02.663Z,99946.69
2022-10-23T15:01:31.989Z,99941.28
2022-10-23T15:04:00.918Z,99945.31
2022-10-23T15:06:28.518Z,99946.94
2022-10-23T15:08:56.023Z,99935.38
2022-10-23T15:11:24.519Z,99914.53
2022-10-23T15:13:52.927Z,99913.50
2022-10-23T15:16:22.204Z,99912.66
2022-10-23T15:18:50.065Z,99916.59
2022-10-23T15:21:17.903Z,99916.81
2022-10-23T15:23:46.327Z,99916.28
2022-10-23T15:26:22.869Z,99912.22
2022-10-23T15:28:58.900Z,99914.16
2022-10-23T15:31:29.815Z,99914.00
2022-10-23T15:33:57.902Z,99915.03
2022-10-23T15:36:26.746Z,99904.97
2022-10-23T15:38:54.988Z,99918.22
2022-10-23T15:41:27.876Z,99917.06
2022-10-23T15:43:55.908Z,99931.16
2022-10-23T15:46:23.350Z,99923.50
2022-10-23T15:48:51.374Z,99933.72
2022-10-23T15:51:20.015Z,99937.97
2022-10-23T15:53:47.481Z,99938.50
2022-10-23T15:56:15.152Z,99924.91
2022-10-23T15:58:43.285Z,99926.72
2022-10-23T16:01:10.960Z,99917.94
2022-10-23T16:03:39.188Z,99916.59
2022-10-23T16:06:09.104Z,99911.13
2022-10-23T16:08:37.286Z,99913.31
2022-10-23T16:11:13.967Z,99920.09
2022-10-23T16:13:42.896Z,99931.03
2022-10-23T16:16:11.039Z,99935.91
2022-10-23T16:18:38.825Z,99940.63
2022-10-23T16:21:07.534Z,99943.41
2022-10-23T16:23:35.389Z,99954.00
2022-10-23T16:26:05.166Z,99968.00
2022-10-23T16:28:33.219Z,99962.87
2022-10-23T16:31:02.289Z,99970.56
2022-10-23T16:33:29.794Z,99964.44
2022-10-23T16:36:03.232Z,99953.09
2022-10-23T16:38:32.053Z,99953.00
2022-10-23T16:41:02.454Z,99953.25
2022-10-23T16:43:35.522Z,99944.09
2022-10-23T16:46:11.879Z,99947.16
2022-10-23T16:48:39.637Z,99952.25
2022-10-23T16:51:14.823Z,99958.84
2022-10-23T16:53:44.503Z,99967.53
2022-10-23T16:56:15.325Z,99964.81
2022-10-23T16:58:43.536Z,99972.97
2022-10-23T17:01:19.611Z,99972.44
2022-10-23T17:03:49.686Z,99973.78
2022-10-23T17:06:23.776Z,99978.91
2022-10-23T17:08:51.941Z,99990.28
2022-10-23T17:11:25.203Z,99981.62
2022-10-23T17:13:58.670Z,99980.09
2022-10-23T17:16:28.631Z,99975.34
2022-10-23T17:18:57.487Z,99977.87
2022-10-23T17:21:25.190Z,99970.06
2022-10-23T17:23:52.964Z,99972.28
2022-10-23T17:26:22.185Z,99977.91
2022-10-23T17:28:50.044Z,99975.53
2022-10-23T17:31:21.805Z,99978.03
2022-10-23T17:33:52.197Z,99973.31
2022-10-23T17:36:21.297Z,99968.38
2022-10-23T17:38:49.565Z,99975.34
2022-10-23T17:41:18.731Z,99969.75
2022-10-23T17:43:46.760Z,99962.94
2022-10-23T17:46:15.625Z,99955.31
2022-10-23T17:48:43.700Z,99956.00
2022-10-23T17:51:16.558Z,99952.59
2022-10-23T17:53:47.199Z,99944.94
2022-10-23T17:56:20.288Z,99945.28
2022-10-23T17:58:53.172Z,99949.53
2022-10-23T18:01:25.069Z,99945.97
2022-10-23T18:03:54.356Z,99951.41
2022-10-23T18:06:29.660Z,99941.03
2022-10-23T18:08:59.730Z,99945.47
2022-10-23T18:11:29.877Z,99953.44
2022-10-23T18:16:28.191Z,99950.56
2022-10-23T18:18:56.270Z,99949.69
2022-10-23T18:21:24.955Z,99944.25
2022-10-23T18:23:52.818Z,99941.84
2022-10-23T18:26:23.514Z,99949.88
2022-10-23T18:28:53.503Z,99948.97
2022-10-23T18:31:21.224Z,99948.31
2022-10-23T18:33:48.906Z,99946.63
2022-10-23T18:36:20.709Z,99945.59
2022-10-23T18:38:49.810Z,99944.25
2022-10-23T18:41:19.026Z,99948.50
2022-10-23T18:43:46.665Z,99942.41
2022-10-23T18:46:14.632Z,99932.72
2022-10-23T18:48:43.572Z,99942.38
2022-10-23T18:51:19.949Z,99942.03
2022-10-23T18:53:51.318Z,99946.59
2022-10-23T18:56:22.962Z,99952.03
2022-10-23T18:58:55.127Z,99940.87
2022-10-23T19:01:24.879Z,99944.72
2022-10-23T19:03:53.599Z,99945.56
2022-10-23T19:06:22.371Z,99939.44
2022-10-23T19:08:50.334Z,99932.66
2022-10-23T19:11:20.495Z,99933.00
2022-10-23T19:13:48.309Z,99934.38
2022-10-23T19:16:47.103Z,99940.47
2022-10-23T19:19:26.767Z,99938.97
2022-10-23T19:21:54.849Z,99945.06
2022-10-23T19:24:34.414Z,99944.72
2022-10-23T19:27:02.721Z,99950.41
2022-10-23T19:29:30.887Z,99948.22
2022-10-23T19:31:58.623Z,99943.62
2022-10-23T19:34:26.530Z,99938.25
2022-10-23T19:36:55.284Z,99947.25
2022-10-23T19:39:23.291Z,99934.00
2022-10-23T19:41:51.715Z,99937.75
2022-10-23T19:44:20.627Z,99941.09
2022-10-23T19:46:48.798Z,99943.09
2022-10-23T19:49:17.257Z,99948.06
2022-10-23T19:51:50.934Z,99951.41
2022-10-23T19:54:20.432Z,99951.12
2022-10-23T19:56:48.689Z,99958.25
2022-10-23T19:59:16.595Z,99959.47
2022-10-23T20:01:47.760Z,99948.75
2022-10-23T20:04:18.331Z,99943.47
2022-10-23T20:06:46.663Z,99949.41
2022-10-23T20:09:14.342Z,99946.00
2022-10-23T20:11:43.492Z,99951.59
2022-10-23T20:14:11.709Z,99954.94
2022-10-23T20:16:39.869Z,99957.84
2022-10-23T20:19:09.628Z,99951.44
2022-10-23T20:21:38.776Z,99949.13
2022-10-23T20:24:06.895Z,99959.81
2022-10-23T20:26:34.965Z,99949.91
2022-10-23T20:29:02.584Z,99943.97
2022-10-23T20:31:30.269Z,99946.69
2022-10-23T20:33:58.156Z,99930.38
2022-10-23T20:36:27.409Z,99931.28
2022-10-23T20:38:55.695Z,99930.03
2022-10-23T20:41:25.038Z,99931.06
2022-10-23T20:43:53.002Z,99928.84
2022-10-23T20:46:20.615Z,99924.16
2022-10-23T20:48:48.643Z,99915.84
2022-10-23T20:51:18.347Z,99919.03
2022-10-23T20:53:46.192Z,99909.69
2022-10-23T20:56:33.825Z,99910.34
2022-10-23T20:59:04.571Z,99901.31
2022-10-23T21:01:33.429Z,99921.75
2022-10-23T21:04:02.659Z,99918.28
2022-10-23T21:06:51.502Z,99920.00
2022-10-23T21:09:20.337Z,99922.00
2022-10-23T21:11:47.790Z,99919.91
2022-10-23T21:14:15.246Z,99908.25
2022-10-23T21:16:44.622Z,99898.91
2022-10-23T21:19:14.679Z,99904.91
2022-10-23T21:21:42.722Z,99900.50
2022-10-23T21:24:14.058Z,99906.62
2022-10-23T21:26:41.739Z,99911.53
2022-10-23T21:29:25.015Z,99911.00
2022-10-23T21:31:57.976Z,99909.81
2022-10-23T21:34:26.256Z,99900.19
2022-10-23T21:37:11.905Z,99906.91
2022-10-23T21:39:41.755Z,99906.88
2022-10-23T21:42:10.291Z,99912.34
2022-10-23T21:44:37.733Z,99915.53
2022-10-23T21:47:05.513Z,99906.94
2022-10-23T21:49:33.268Z,99899.53
2022-10-23T21:52:00.744Z,99906.34
2022-10-23T21:54:28.222Z,99901.22
2022-10-23T21:56:56.022Z,99901.69
2022-10-23T21:59:27.596Z,99905.59
2022-10-23T22:01:57.877Z,99906.78
2022-10-23T22:04:25.940Z,99900.19
2022-10-23T22:06:53.665Z,99897.94
2022-10-23T22:09:22.046Z,99906.09
2022-10-23T22:11:50.874Z,99907.91
2022-10-23T22:14:18.406Z,99910.59
2022-10-23T22:16:46.656Z,99904.72
2022-10-23T22:19:16.299Z,99904.38
2022-10-23T22:21:44.126Z,99897.47
2022-10-23T22:24:11.840Z,99894.25
2022-10-23T22:26:42.588Z,99904.28
2022-10-23T22:29:22.576Z,99903.59
2022-10-23T22:31:50.610Z,99906.31
2022-10-23T22:34:48.313Z,99908.50
2022-10-23T22:37:14.481Z,99900.28
2022-10-23T22:39:42.257Z,99905.97
2022-10-23T22:42:09.808Z,99900.97
2022-10-23T22:44:37.584Z,99900.22
2022-10-23T22:47:05.140Z,99909.16
2022-10-23T22:49:32.629Z,99898.00
2022-10-23T22:52:00.340Z,99900.69
2022-10-23T22:54:27.877Z,99897.97
2022-10-23T22:56:55.294Z,99890.16
2022-10-23T22:59:22.965Z,99885.78
2022-10-23T23:01:50.531Z,99879.34
2022-10-23T23:07:07.875Z,99888.22
2022-10-23T23:09:40.137Z,99885.06
2022-10-23T23:12:09.010Z,99884.47
2022-10-23T23:14:36.869Z,99871.41
2022-10-23T23:17:05.017Z,99873.28
2022-10-23T23:19:33.043Z,99872.56
2022-10-23T23:22:01.081Z,99883.25
2022-10-23T23:24:28.644Z,99880.41
2022-10-23T23:26:56.319Z,99882.69
2022-10-23T23:29:23.792Z,99873.72
2022-10-23T23:31:51.368Z,99873.03
2022-10-23T23:34:20.068Z,99868.59
2022-10-23T23:36:47.547Z,99871.13
2022-10-23T23:39:14.980Z,99861.31
2022-10-23T23:41:42.812Z,99865.31
2022-10-23T23:44:10.367Z,99866.69
2022-10-23T23:46:38.189Z,99866.59
2022-10-23T23:49:05.907Z,99871.50
2022-10-23T23:51:33.399Z,99879.87
2022-10-23T23:54:00.878Z,99862.00
2022-10-23T23:56:28.655Z,99860.72
2022-10-23T23:58:57.708Z,99871.16
